Bass Lake, Indiana
Current Conditions -  °F | °C
As of 3:55 AM on Monday 22 Dec 2014 (Local Time) from KOXI Reporting Station
Clear Clear  
Wind Chill: 21°   Ceiling: Unl
Heat Index: 30°   Visibility: 5mi
Dew Point: 24°   Wind: 10mph
Humidity: 78%   Direction: 140°SE
Pressure: 30"   Gusts: NA
Location:  41.2954°N, 86.6039°W
Report Text: KOXI 220955Z AUTO 14009KT 5SM CLR M01/M05 A3000 RMK AO1 T10131047
Loading
Personal Weather Stations






























Interactive Weather Map New forecast layout! Learn more

10-Day Weather Forecast

Advertisements
Track Severe Weather on mobile